Terminal Aerodrome Forecast
Issued by NWS

Home | Current Version | Previous Version | Text Only | Print | Product List | Glossary On
Versions: 1 2 3 4 5 6 7 8 9 10 11 12
000
FTUS41 KBTV 182300
TAFMSS
TAF
KMSS 182330Z 1900/1924 VRB03KT P6SM -SHRA OVC050
     FM190400 25004KT P6SM -SHRA OVC035
     FM190900 27009KT P6SM OVC035
     FM191400 32014G20KT P6SM BKN060=

USA.gov is the U.S. government's official web portal to all federal, state and local government web resources and services.